createdAt,value
2022-12-19T00:03:59.020Z,101552.08
2022-12-19T00:14:15.920Z,101547.15
2022-12-19T00:24:21.988Z,101540.22
2022-12-19T00:34:27.817Z,101526.57
2022-12-19T00:44:33.598Z,101509.88
2022-12-19T00:54:39.250Z,101504.73
2022-12-19T01:04:45.546Z,101504.72
2022-12-19T01:14:52.938Z,101504.61
2022-12-19T01:24:58.626Z,101491.16
2022-12-19T01:35:04.645Z,101476.17
2022-12-19T01:45:43.576Z,101463.12
2022-12-19T01:55:54.278Z,101455.43
2022-12-19T02:06:01.804Z,101439.23
2022-12-19T02:16:20.165Z,101430.38
2022-12-19T02:26:49.144Z,101416.77
2022-12-19T02:36:58.162Z,101407.63
2022-12-19T02:47:06.571Z,101398.52
2022-12-19T02:57:20.952Z,101388.64
2022-12-19T03:07:37.469Z,101382.23
2022-12-19T03:17:43.427Z,101372.36
2022-12-19T03:27:51.705Z,101372.21
2022-12-19T03:38:02.924Z,101387.27
2022-12-19T03:48:12.356Z,101384.52
2022-12-19T03:58:25.370Z,101378.20
2022-12-19T04:08:32.814Z,101366.11
2022-12-19T04:18:42.590Z,101372.13
2022-12-19T04:28:51.471Z,101363.20
2022-12-19T04:38:57.371Z,101351.27
2022-12-19T04:49:03.333Z,101329.23
2022-12-19T04:59:09.050Z,101327.45
2022-12-19T05:09:14.838Z,101309.09
2022-12-19T05:19:20.425Z,101308.03
2022-12-19T05:29:26.354Z,101307.08
2022-12-19T05:39:32.301Z,101302.98
2022-12-19T05:49:41.662Z,101287.95
2022-12-19T05:59:47.423Z,101285.41
2022-12-19T06:09:53.128Z,101282.43
2022-12-19T06:19:58.833Z,101268.54
2022-12-19T06:30:04.750Z,101267.34
2022-12-19T06:40:33.945Z,101269.39
2022-12-19T06:50:39.651Z,101263.75
2022-12-19T07:00:45.258Z,101258.11
2022-12-19T07:10:51.045Z,101251.20
2022-12-19T07:20:57.709Z,101243.38
2022-12-19T07:31:03.771Z,101248.77
2022-12-19T07:41:09.624Z,101256.86
2022-12-19T07:51:15.382Z,101256.05
2022-12-19T08:01:21.504Z,101249.46
2022-12-19T08:11:29.445Z,101242.73
2022-12-19T08:21:35.267Z,101227.70
2022-12-19T08:31:41.097Z,101219.59
2022-12-19T08:41:46.796Z,101207.06
2022-12-19T08:51:52.436Z,101194.02
2022-12-19T09:01:58.401Z,101197.74
2022-12-19T09:12:04.659Z,101184.25
2022-12-19T09:22:10.316Z,101168.74
2022-12-19T09:32:16.027Z,101152.00
2022-12-19T09:42:41.233Z,101128.04
2022-12-19T09:52:56.369Z,101100.81
2022-12-19T10:03:06.557Z,101083.13
2022-12-19T10:13:22.196Z,101071.72
2022-12-19T10:23:50.557Z,101049.84
2022-12-19T10:34:03.667Z,101046.46
2022-12-19T10:44:11.204Z,101023.05
2022-12-19T10:54:18.176Z,101006.34
2022-12-19T11:04:34.432Z,100977.30
2022-12-19T11:18:23.809Z,100955.92
2022-12-19T11:29:38.526Z,100927.66
2022-12-19T11:35:51.349Z,100919.70
2022-12-19T11:46:05.781Z,100899.83
2022-12-19T11:56:16.358Z,100876.61
2022-12-19T12:06:31.140Z,100868.23
2022-12-19T12:28:20.374Z,100857.55
2022-12-19T12:31:42.781Z,100843.20
2022-12-19T12:38:21.517Z,100832.33
2022-12-19T12:48:37.704Z,100825.06
2022-12-19T12:59:01.435Z,100815.55
2022-12-19T13:09:25.673Z,100814.52
2022-12-19T13:19:33.047Z,100818.22
2022-12-19T13:29:54.418Z,100802.56
2022-12-19T13:40:14.246Z,100776.80
2022-12-19T13:50:30.953Z,100765.24
2022-12-19T14:00:43.164Z,100737.50
2022-12-19T14:11:33.616Z,100729.61
2022-12-19T14:22:11.848Z,100728.84
2022-12-19T14:31:58.393Z,100709.55
2022-12-19T14:43:55.504Z,100691.45
2022-12-19T14:54:26.804Z,100683.52
2022-12-19T15:04:33.670Z,100667.52
2022-12-19T15:14:50.792Z,100650.25
2022-12-19T15:24:50.880Z,100657.79
2022-12-19T15:34:56.606Z,100648.36
2022-12-19T15:45:03.077Z,100635.06
2022-12-19T15:55:13.549Z,100638.70
2022-12-19T16:05:21.138Z,100621.56
2022-12-19T16:15:30.053Z,100614.11
2022-12-19T16:25:38.156Z,100598.65
2022-12-19T16:46:16.488Z,100573.66
2022-12-19T16:56:29.321Z,100575.35
2022-12-19T17:06:35.072Z,100555.99
2022-12-19T17:16:41.009Z,100544.16
2022-12-19T17:26:47.540Z,100529.14
2022-12-19T17:36:53.430Z,100512.58
2022-12-19T17:46:59.658Z,100521.95
2022-12-19T17:57:05.594Z,100495.45
2022-12-19T18:07:16.471Z,100467.41
2022-12-19T18:17:26.369Z,100459.11
2022-12-19T18:27:32.325Z,100449.48
2022-12-19T18:37:38.012Z,100444.55
2022-12-19T18:47:44.557Z,100454.85
2022-12-19T18:57:54.509Z,100441.48
2022-12-19T19:08:03.069Z,100434.27
2022-12-19T19:18:10.289Z,100423.13
2022-12-19T19:28:16.242Z,100407.66
2022-12-19T19:38:21.323Z,100383.40
2022-12-19T19:48:27.024Z,100374.67
2022-12-19T19:58:33.197Z,100379.48
2022-12-19T20:08:40.696Z,100374.36
2022-12-19T20:18:50.116Z,100357.73
2022-12-19T20:28:56.855Z,100347.77
2022-12-19T20:39:02.700Z,100346.80
2022-12-19T20:49:08.472Z,100334.48
2022-12-19T20:59:14.274Z,100327.30
2022-12-19T21:09:20.115Z,100322.69
2022-12-19T21:19:25.865Z,100315.66
2022-12-19T21:29:31.586Z,100314.62
2022-12-19T21:39:37.460Z,100302.95
2022-12-19T21:49:43.556Z,100292.63
2022-12-19T21:59:49.655Z,100275.42
2022-12-19T22:09:55.510Z,100267.14
2022-12-19T22:20:04.752Z,100267.10
2022-12-19T22:30:15.820Z,100261.55
2022-12-19T22:40:21.571Z,100246.75
2022-12-19T22:50:27.298Z,100238.83
2022-12-19T23:00:33.741Z,100231.59
2022-12-19T23:10:40.163Z,100222.11
2022-12-19T23:20:46.329Z,100215.08
2022-12-19T23:30:52.176Z,100215.56
2022-12-19T23:41:03.008Z,100206.95
2022-12-19T23:51:11.501Z,100204.50
